sensor_id;sensor_type;location;lat;lon;timestamp;P1;durP1;ratioP1;P2;durP2;ratioP2
55720;SDS011;41626;53.098;6.168;2022-12-22T00:02:19;49.10;;;32.50;;
55720;SDS011;41626;53.098;6.168;2022-12-22T00:05:10;47.30;;;32.28;;
55720;SDS011;41626;53.098;6.168;2022-12-22T00:07:55;50.25;;;32.72;;
55720;SDS011;41626;53.098;6.168;2022-12-22T00:10:40;56.53;;;34.53;;
55720;SDS011;41626;53.098;6.168;2022-12-22T00:13:24;62.38;;;35.50;;
55720;SDS011;41626;53.098;6.168;2022-12-22T00:16:08;53.20;;;33.67;;
55720;SDS011;41626;53.098;6.168;2022-12-22T00:18:53;70.43;;;38.10;;
55720;SDS011;41626;53.098;6.168;2022-12-22T00:21:37;62.27;;;37.17;;
55720;SDS011;41626;53.098;6.168;2022-12-22T00:24:22;71.75;;;40.67;;
55720;SDS011;41626;53.098;6.168;2022-12-22T00:27:10;61.72;;;36.63;;
55720;SDS011;41626;53.098;6.168;2022-12-22T00:29:58;60.92;;;38.08;;
55720;SDS011;41626;53.098;6.168;2022-12-22T00:32:43;66.20;;;39.70;;
55720;SDS011;41626;53.098;6.168;2022-12-22T00:35:28;67.10;;;38.10;;
55720;SDS011;41626;53.098;6.168;2022-12-22T00:38:13;59.15;;;39.03;;
55720;SDS011;41626;53.098;6.168;2022-12-22T00:41:02;70.07;;;40.07;;
55720;SDS011;41626;53.098;6.168;2022-12-22T00:43:46;60.72;;;38.05;;
55720;SDS011;41626;53.098;6.168;2022-12-22T00:46:31;56.87;;;36.77;;
55720;SDS011;41626;53.098;6.168;2022-12-22T00:49:17;62.97;;;39.70;;
55720;SDS011;41626;53.098;6.168;2022-12-22T00:52:02;60.90;;;40.90;;
55720;SDS011;41626;53.098;6.168;2022-12-22T00:54:47;52.28;;;36.03;;
55720;SDS011;41626;53.098;6.168;2022-12-22T00:57:34;57.90;;;37.40;;
55720;SDS011;41626;53.098;6.168;2022-12-22T01:00:18;63.25;;;39.15;;
55720;SDS011;41626;53.098;6.168;2022-12-22T01:03:02;52.55;;;36.83;;
55720;SDS011;41626;53.098;6.168;2022-12-22T01:05:47;61.23;;;39.90;;
55720;SDS011;41626;53.098;6.168;2022-12-22T01:08:32;63.77;;;40.03;;
55720;SDS011;41626;53.098;6.168;2022-12-22T01:11:17;60.50;;;40.13;;
55720;SDS011;41626;53.098;6.168;2022-12-22T01:14:02;66.72;;;41.53;;
55720;SDS011;41626;53.098;6.168;2022-12-22T01:16:52;66.70;;;42.33;;
55720;SDS011;41626;53.098;6.168;2022-12-22T01:19:36;74.82;;;43.40;;
55720;SDS011;41626;53.098;6.168;2022-12-22T01:22:21;72.85;;;42.28;;
55720;SDS011;41626;53.098;6.168;2022-12-22T01:25:09;65.60;;;42.03;;
55720;SDS011;41626;53.098;6.168;2022-12-22T01:27:54;75.30;;;44.13;;
55720;SDS011;41626;53.098;6.168;2022-12-22T01:30:39;70.65;;;43.08;;
55720;SDS011;41626;53.098;6.168;2022-12-22T01:33:23;86.32;;;46.28;;
55720;SDS011;41626;53.098;6.168;2022-12-22T01:36:08;71.77;;;42.63;;
55720;SDS011;41626;53.098;6.168;2022-12-22T01:38:52;83.85;;;44.78;;
55720;SDS011;41626;53.098;6.168;2022-12-22T01:41:36;76.22;;;44.75;;
55720;SDS011;41626;53.098;6.168;2022-12-22T01:44:21;85.00;;;45.17;;
55720;SDS011;41626;53.098;6.168;2022-12-22T01:50:23;77.25;;;45.00;;
55720;SDS011;41626;53.098;6.168;2022-12-22T01:53:13;74.70;;;45.92;;
55720;SDS011;41626;53.098;6.168;2022-12-22T01:56:00;76.43;;;45.88;;
55720;SDS011;41626;53.098;6.168;2022-12-22T01:58:47;84.85;;;46.78;;
55720;SDS011;41626;53.098;6.168;2022-12-22T02:01:35;82.60;;;46.20;;
55720;SDS011;41626;53.098;6.168;2022-12-22T02:04:21;78.72;;;42.90;;
55720;SDS011;41626;53.098;6.168;2022-12-22T02:10:42;64.63;;;41.90;;
55720;SDS011;41626;53.098;6.168;2022-12-22T02:13:57;83.10;;;46.33;;
55720;SDS011;41626;53.098;6.168;2022-12-22T02:16:44;69.53;;;42.25;;
55720;SDS011;41626;53.098;6.168;2022-12-22T02:25:24;81.47;;;44.75;;
55720;SDS011;41626;53.098;6.168;2022-12-22T02:28:12;83.68;;;46.13;;
55720;SDS011;41626;53.098;6.168;2022-12-22T02:30:57;78.13;;;45.50;;
55720;SDS011;41626;53.098;6.168;2022-12-22T02:33:41;79.50;;;45.17;;
55720;SDS011;41626;53.098;6.168;2022-12-22T02:45:33;95.80;;;47.88;;
55720;SDS011;41626;53.098;6.168;2022-12-22T02:48:23;109.57;;;49.20;;
55720;SDS011;41626;53.098;6.168;2022-12-22T02:51:16;97.15;;;46.25;;
55720;SDS011;41626;53.098;6.168;2022-12-22T02:54:04;101.55;;;49.17;;
55720;SDS011;41626;53.098;6.168;2022-12-22T02:56:49;92.35;;;48.65;;
55720;SDS011;41626;53.098;6.168;2022-12-22T02:59:33;109.03;;;50.13;;
55720;SDS011;41626;53.098;6.168;2022-12-22T03:02:17;124.77;;;51.17;;
55720;SDS011;41626;53.098;6.168;2022-12-22T03:05:02;119.55;;;53.17;;
55720;SDS011;41626;53.098;6.168;2022-12-22T03:07:46;117.30;;;51.93;;
55720;SDS011;41626;53.098;6.168;2022-12-22T03:10:30;107.90;;;50.42;;
55720;SDS011;41626;53.098;6.168;2022-12-22T03:13:16;123.43;;;51.77;;
55720;SDS011;41626;53.098;6.168;2022-12-22T03:16:04;108.43;;;47.73;;
55720;SDS011;41626;53.098;6.168;2022-12-22T03:18:48;148.88;;;54.65;;
55720;SDS011;41626;53.098;6.168;2022-12-22T03:21:33;151.00;;;54.13;;
55720;SDS011;41626;53.098;6.168;2022-12-22T03:24:17;157.52;;;54.22;;
55720;SDS011;41626;53.098;6.168;2022-12-22T03:27:01;206.38;;;59.45;;
55720;SDS011;41626;53.098;6.168;2022-12-22T03:29:27;139.32;;;52.00;;
55720;SDS011;41626;53.098;6.168;2022-12-22T03:31:52;148.32;;;51.75;;
55720;SDS011;41626;53.098;6.168;2022-12-22T03:34:18;168.97;;;57.17;;
55720;SDS011;41626;53.098;6.168;2022-12-22T03:36:44;163.03;;;56.70;;
55720;SDS011;41626;53.098;6.168;2022-12-22T03:39:09;167.47;;;56.33;;
55720;SDS011;41626;53.098;6.168;2022-12-22T03:41:35;132.77;;;53.67;;
55720;SDS011;41626;53.098;6.168;2022-12-22T03:44:19;184.45;;;56.85;;
55720;SDS011;41626;53.098;6.168;2022-12-22T03:47:03;133.75;;;51.55;;
55720;SDS011;41626;53.098;6.168;2022-12-22T03:49:29;151.93;;;52.47;;
55720;SDS011;41626;53.098;6.168;2022-12-22T03:51:54;168.52;;;53.88;;
55720;SDS011;41626;53.098;6.168;2022-12-22T03:54:21;152.38;;;54.60;;
55720;SDS011;41626;53.098;6.168;2022-12-22T03:56:48;162.70;;;55.28;;
55720;SDS011;41626;53.098;6.168;2022-12-22T03:59:15;121.95;;;51.17;;
55720;SDS011;41626;53.098;6.168;2022-12-22T04:01:43;172.63;;;54.42;;
55720;SDS011;41626;53.098;6.168;2022-12-22T04:04:11;129.90;;;50.20;;
55720;SDS011;41626;53.098;6.168;2022-12-22T04:06:37;128.98;;;49.72;;
55720;SDS011;41626;53.098;6.168;2022-12-22T04:09:03;113.93;;;49.17;;
55720;SDS011;41626;53.098;6.168;2022-12-22T04:11:29;118.10;;;50.30;;
55720;SDS011;41626;53.098;6.168;2022-12-22T04:14:14;143.23;;;50.08;;
55720;SDS011;41626;53.098;6.168;2022-12-22T04:16:39;135.60;;;52.17;;
55720;SDS011;41626;53.098;6.168;2022-12-22T04:19:05;121.10;;;51.37;;
55720;SDS011;41626;53.098;6.168;2022-12-22T04:21:32;118.90;;;49.28;;
55720;SDS011;41626;53.098;6.168;2022-12-22T04:23:57;134.18;;;49.08;;
55720;SDS011;41626;53.098;6.168;2022-12-22T04:26:23;112.10;;;47.03;;
55720;SDS011;41626;53.098;6.168;2022-12-22T04:28:50;130.18;;;49.65;;
55720;SDS011;41626;53.098;6.168;2022-12-22T04:31:17;139.63;;;50.28;;
55720;SDS011;41626;53.098;6.168;2022-12-22T04:33:43;123.63;;;48.38;;
55720;SDS011;41626;53.098;6.168;2022-12-22T04:36:09;121.93;;;47.87;;
55720;SDS011;41626;53.098;6.168;2022-12-22T04:38:35;115.60;;;47.67;;
55720;SDS011;41626;53.098;6.168;2022-12-22T04:41:01;123.13;;;47.80;;
55720;SDS011;41626;53.098;6.168;2022-12-22T04:43:27;129.97;;;48.07;;
55720;SDS011;41626;53.098;6.168;2022-12-22T04:45:53;107.03;;;45.63;;
55720;SDS011;41626;53.098;6.168;2022-12-22T04:48:19;116.22;;;46.35;;
55720;SDS011;41626;53.098;6.168;2022-12-22T04:50:48;95.70;;;43.83;;
55720;SDS011;41626;53.098;6.168;2022-12-22T04:53:14;108.70;;;47.42;;
55720;SDS011;41626;53.098;6.168;2022-12-22T04:55:47;95.97;;;41.80;;
55720;SDS011;41626;53.098;6.168;2022-12-22T04:58:14;91.85;;;41.25;;
55720;SDS011;41626;53.098;6.168;2022-12-22T05:00:40;97.95;;;41.40;;
55720;SDS011;41626;53.098;6.168;2022-12-22T05:03:07;85.63;;;41.60;;
55720;SDS011;41626;53.098;6.168;2022-12-22T05:05:33;90.32;;;41.63;;
55720;SDS011;41626;53.098;6.168;2022-12-22T05:08:00;89.88;;;42.72;;
55720;SDS011;41626;53.098;6.168;2022-12-22T05:10:26;122.30;;;45.22;;
55720;SDS011;41626;53.098;6.168;2022-12-22T05:12:51;94.30;;;41.50;;
55720;SDS011;41626;53.098;6.168;2022-12-22T05:15:21;100.30;;;44.40;;
55720;SDS011;41626;53.098;6.168;2022-12-22T05:17:47;122.70;;;45.40;;
55720;SDS011;41626;53.098;6.168;2022-12-22T05:20:13;117.00;;;45.63;;
55720;SDS011;41626;53.098;6.168;2022-12-22T05:22:39;98.80;;;43.50;;
55720;SDS011;41626;53.098;6.168;2022-12-22T05:25:04;114.22;;;44.53;;
55720;SDS011;41626;53.098;6.168;2022-12-22T05:27:30;126.13;;;46.25;;
55720;SDS011;41626;53.098;6.168;2022-12-22T05:29:56;111.30;;;43.65;;
55720;SDS011;41626;53.098;6.168;2022-12-22T05:32:22;122.13;;;45.60;;
55720;SDS011;41626;53.098;6.168;2022-12-22T05:34:47;100.87;;;43.27;;
55720;SDS011;41626;53.098;6.168;2022-12-22T05:37:13;104.53;;;42.43;;
55720;SDS011;41626;53.098;6.168;2022-12-22T05:39:39;96.50;;;39.90;;
55720;SDS011;41626;53.098;6.168;2022-12-22T05:42:04;86.93;;;39.97;;
55720;SDS011;41626;53.098;6.168;2022-12-22T05:44:30;102.87;;;42.40;;
55720;SDS011;41626;53.098;6.168;2022-12-22T05:46:56;113.57;;;43.30;;
55720;SDS011;41626;53.098;6.168;2022-12-22T05:49:21;107.10;;;43.13;;
55720;SDS011;41626;53.098;6.168;2022-12-22T05:51:47;98.25;;;42.63;;
55720;SDS011;41626;53.098;6.168;2022-12-22T05:54:13;79.72;;;39.38;;
55720;SDS011;41626;53.098;6.168;2022-12-22T05:56:38;80.78;;;39.17;;
55720;SDS011;41626;53.098;6.168;2022-12-22T05:59:04;69.55;;;37.83;;
55720;SDS011;41626;53.098;6.168;2022-12-22T06:01:29;71.10;;;36.55;;
55720;SDS011;41626;53.098;6.168;2022-12-22T06:03:55;76.97;;;38.80;;
55720;SDS011;41626;53.098;6.168;2022-12-22T06:06:21;81.73;;;37.00;;
55720;SDS011;41626;53.098;6.168;2022-12-22T06:08:46;71.07;;;35.50;;
55720;SDS011;41626;53.098;6.168;2022-12-22T06:11:12;74.90;;;35.30;;
55720;SDS011;41626;53.098;6.168;2022-12-22T06:13:42;80.38;;;34.42;;
55720;SDS011;41626;53.098;6.168;2022-12-22T06:16:08;91.07;;;36.03;;
55720;SDS011;41626;53.098;6.168;2022-12-22T06:18:34;107.07;;;30.03;;
55720;SDS011;41626;53.098;6.168;2022-12-22T06:21:00;84.97;;;28.07;;
55720;SDS011;41626;53.098;6.168;2022-12-22T06:23:26;110.47;;;30.07;;
55720;SDS011;41626;53.098;6.168;2022-12-22T06:25:52;77.30;;;26.13;;
55720;SDS011;41626;53.098;6.168;2022-12-22T06:28:22;86.85;;;26.85;;
55720;SDS011;41626;53.098;6.168;2022-12-22T06:30:47;93.43;;;25.67;;
55720;SDS011;41626;53.098;6.168;2022-12-22T06:33:13;104.43;;;25.98;;
55720;SDS011;41626;53.098;6.168;2022-12-22T06:35:39;100.85;;;26.35;;
55720;SDS011;41626;53.098;6.168;2022-12-22T06:38:04;86.45;;;24.42;;
55720;SDS011;41626;53.098;6.168;2022-12-22T06:40:30;84.35;;;23.95;;
55720;SDS011;41626;53.098;6.168;2022-12-22T06:42:56;112.47;;;26.60;;
55720;SDS011;41626;53.098;6.168;2022-12-22T06:45:42;63.47;;;21.48;;
55720;SDS011;41626;53.098;6.168;2022-12-22T06:48:09;73.50;;;22.77;;
55720;SDS011;41626;53.098;6.168;2022-12-22T06:50:36;63.35;;;20.77;;
55720;SDS011;41626;53.098;6.168;2022-12-22T06:53:01;74.90;;;23.87;;
55720;SDS011;41626;53.098;6.168;2022-12-22T06:55:28;59.75;;;20.90;;
55720;SDS011;41626;53.098;6.168;2022-12-22T06:57:53;65.93;;;23.20;;
55720;SDS011;41626;53.098;6.168;2022-12-22T07:00:19;53.92;;;22.05;;
55720;SDS011;41626;53.098;6.168;2022-12-22T07:02:45;73.10;;;22.40;;
55720;SDS011;41626;53.098;6.168;2022-12-22T07:05:11;58.17;;;21.27;;
55720;SDS011;41626;53.098;6.168;2022-12-22T07:07:36;60.58;;;19.55;;
55720;SDS011;41626;53.098;6.168;2022-12-22T07:10:03;58.30;;;20.80;;
55720;SDS011;41626;53.098;6.168;2022-12-22T07:12:28;49.30;;;19.35;;
55720;SDS011;41626;53.098;6.168;2022-12-22T07:14:54;63.65;;;20.15;;
55720;SDS011;41626;53.098;6.168;2022-12-22T07:17:20;46.67;;;19.80;;
55720;SDS011;41626;53.098;6.168;2022-12-22T07:19:46;66.20;;;21.10;;
55720;SDS011;41626;53.098;6.168;2022-12-22T07:22:11;47.83;;;17.55;;
55720;SDS011;41626;53.098;6.168;2022-12-22T07:24:37;67.90;;;20.48;;
55720;SDS011;41626;53.098;6.168;2022-12-22T07:27:03;76.43;;;20.42;;
55720;SDS011;41626;53.098;6.168;2022-12-22T07:29:28;68.45;;;20.02;;
55720;SDS011;41626;53.098;6.168;2022-12-22T07:31:54;48.80;;;18.17;;
55720;SDS011;41626;53.098;6.168;2022-12-22T07:34:20;71.45;;;19.10;;
55720;SDS011;41626;53.098;6.168;2022-12-22T07:36:45;65.78;;;16.83;;
55720;SDS011;41626;53.098;6.168;2022-12-22T07:39:11;82.07;;;17.58;;
55720;SDS011;41626;53.098;6.168;2022-12-22T07:41:37;103.95;;;17.33;;
55720;SDS011;41626;53.098;6.168;2022-12-22T07:44:22;88.43;;;16.67;;
55720;SDS011;41626;53.098;6.168;2022-12-22T07:46:48;77.65;;;16.58;;
55720;SDS011;41626;53.098;6.168;2022-12-22T07:49:13;134.55;;;15.60;;
55720;SDS011;41626;53.098;6.168;2022-12-22T07:51:58;154.10;;;13.93;;
55720;SDS011;41626;53.098;6.168;2022-12-22T07:54:24;130.10;;;15.48;;
55720;SDS011;41626;53.098;6.168;2022-12-22T07:56:51;107.75;;;14.10;;
55720;SDS011;41626;53.098;6.168;2022-12-22T07:59:17;108.47;;;14.90;;
55720;SDS011;41626;53.098;6.168;2022-12-22T08:01:43;102.57;;;14.87;;
55720;SDS011;41626;53.098;6.168;2022-12-22T08:04:09;100.18;;;14.57;;
55720;SDS011;41626;53.098;6.168;2022-12-22T08:06:36;89.35;;;15.38;;
55720;SDS011;41626;53.098;6.168;2022-12-22T08:09:02;101.18;;;17.27;;
55720;SDS011;41626;53.098;6.168;2022-12-22T08:11:28;76.18;;;13.43;;
55720;SDS011;41626;53.098;6.168;2022-12-22T08:13:54;73.53;;;12.83;;
55720;SDS011;41626;53.098;6.168;2022-12-22T08:16:20;102.88;;;13.48;;
55720;SDS011;41626;53.098;6.168;2022-12-22T08:18:46;169.27;;;15.97;;
55720;SDS011;41626;53.098;6.168;2022-12-22T08:21:12;130.05;;;14.93;;
55720;SDS011;41626;53.098;6.168;2022-12-22T08:23:38;129.40;;;15.57;;
55720;SDS011;41626;53.098;6.168;2022-12-22T08:26:05;124.83;;;16.00;;
55720;SDS011;41626;53.098;6.168;2022-12-22T08:28:33;88.97;;;14.97;;
55720;SDS011;41626;53.098;6.168;2022-12-22T08:31:08;113.03;;;17.00;;
55720;SDS011;41626;53.098;6.168;2022-12-22T08:33:35;87.22;;;15.27;;
55720;SDS011;41626;53.098;6.168;2022-12-22T08:36:01;68.10;;;12.18;;
55720;SDS011;41626;53.098;6.168;2022-12-22T08:38:27;65.60;;;13.00;;
55720;SDS011;41626;53.098;6.168;2022-12-22T08:40:54;59.03;;;11.10;;
55720;SDS011;41626;53.098;6.168;2022-12-22T08:43:20;60.95;;;12.45;;
55720;SDS011;41626;53.098;6.168;2022-12-22T08:45:46;100.45;;;14.60;;
55720;SDS011;41626;53.098;6.168;2022-12-22T08:48:11;75.07;;;14.23;;
55720;SDS011;41626;53.098;6.168;2022-12-22T08:50:37;52.80;;;11.98;;
55720;SDS011;41626;53.098;6.168;2022-12-22T08:53:04;62.08;;;12.15;;
55720;SDS011;41626;53.098;6.168;2022-12-22T08:55:31;60.00;;;12.07;;
55720;SDS011;41626;53.098;6.168;2022-12-22T08:57:57;65.32;;;12.32;;
55720;SDS011;41626;53.098;6.168;2022-12-22T09:00:23;60.92;;;12.15;;
55720;SDS011;41626;53.098;6.168;2022-12-22T09:02:49;62.40;;;11.95;;
55720;SDS011;41626;53.098;6.168;2022-12-22T09:05:16;63.00;;;13.52;;
55720;SDS011;41626;53.098;6.168;2022-12-22T09:07:41;48.35;;;12.18;;
55720;SDS011;41626;53.098;6.168;2022-12-22T09:10:08;95.47;;;15.00;;
55720;SDS011;41626;53.098;6.168;2022-12-22T09:12:34;75.32;;;15.75;;
55720;SDS011;41626;53.098;6.168;2022-12-22T09:15:01;84.63;;;15.67;;
55720;SDS011;41626;53.098;6.168;2022-12-22T09:17:26;59.80;;;15.33;;
55720;SDS011;41626;53.098;6.168;2022-12-22T09:19:52;62.97;;;14.73;;
55720;SDS011;41626;53.098;6.168;2022-12-22T09:22:18;42.23;;;13.30;;
55720;SDS011;41626;53.098;6.168;2022-12-22T09:24:43;33.93;;;12.37;;
55720;SDS011;41626;53.098;6.168;2022-12-22T09:27:09;53.60;;;13.63;;
55720;SDS011;41626;53.098;6.168;2022-12-22T09:29:35;48.87;;;14.17;;
55720;SDS011;41626;53.098;6.168;2022-12-22T09:32:01;38.67;;;13.82;;
55720;SDS011;41626;53.098;6.168;2022-12-22T09:34:28;45.35;;;13.82;;
55720;SDS011;41626;53.098;6.168;2022-12-22T09:36:54;31.30;;;13.05;;
55720;SDS011;41626;53.098;6.168;2022-12-22T09:39:20;30.77;;;12.10;;
55720;SDS011;41626;53.098;6.168;2022-12-22T09:41:46;32.40;;;12.10;;
55720;SDS011;41626;53.098;6.168;2022-12-22T09:46:57;32.38;;;12.68;;
55720;SDS011;41626;53.098;6.168;2022-12-22T09:49:25;42.65;;;13.85;;
55720;SDS011;41626;53.098;6.168;2022-12-22T09:51:52;47.43;;;12.57;;
55720;SDS011;41626;53.098;6.168;2022-12-22T09:54:21;33.20;;;12.67;;
55720;SDS011;41626;53.098;6.168;2022-12-22T09:56:48;31.85;;;13.60;;
55720;SDS011;41626;53.098;6.168;2022-12-22T09:59:15;32.35;;;13.73;;
55720;SDS011;41626;53.098;6.168;2022-12-22T10:06:57;19.87;;;9.80;;
55720;SDS011;41626;53.098;6.168;2022-12-22T10:09:33;16.50;;;10.35;;
55720;SDS011;41626;53.098;6.168;2022-12-22T10:12:02;20.07;;;10.17;;
55720;SDS011;41626;53.098;6.168;2022-12-22T10:14:40;22.20;;;11.10;;
55720;SDS011;41626;53.098;6.168;2022-12-22T10:17:15;15.95;;;9.65;;
55720;SDS011;41626;53.098;6.168;2022-12-22T10:19:47;15.20;;;8.40;;
55720;SDS011;41626;53.098;6.168;2022-12-22T10:24:57;15.40;;;8.48;;
55720;SDS011;41626;53.098;6.168;2022-12-22T10:27:27;15.07;;;8.30;;
55720;SDS011;41626;53.098;6.168;2022-12-22T10:33:01;11.40;;;6.20;;
55720;SDS011;41626;53.098;6.168;2022-12-22T10:35:49;14.75;;;7.13;;
55720;SDS011;41626;53.098;6.168;2022-12-22T10:38:33;14.27;;;7.45;;
55720;SDS011;41626;53.098;6.168;2022-12-22T10:41:11;11.52;;;6.50;;
55720;SDS011;41626;53.098;6.168;2022-12-22T10:43:47;13.32;;;7.13;;
55720;SDS011;41626;53.098;6.168;2022-12-22T10:46:33;12.00;;;7.43;;
55720;SDS011;41626;53.098;6.168;2022-12-22T10:51:40;14.63;;;7.03;;
55720;SDS011;41626;53.098;6.168;2022-12-22T10:54:07;15.73;;;8.65;;
55720;SDS011;41626;53.098;6.168;2022-12-22T10:56:33;16.23;;;8.10;;
55720;SDS011;41626;53.098;6.168;2022-12-22T11:01:36;18.83;;;8.82;;
55720;SDS011;41626;53.098;6.168;2022-12-22T11:06:51;18.52;;;8.25;;
55720;SDS011;41626;53.098;6.168;2022-12-22T11:09:18;15.18;;;8.05;;
55720;SDS011;41626;53.098;6.168;2022-12-22T11:11:52;14.95;;;7.40;;
55720;SDS011;41626;53.098;6.168;2022-12-22T11:14:49;15.75;;;7.72;;
55720;SDS011;41626;53.098;6.168;2022-12-22T11:22:49;14.63;;;5.97;;
55720;SDS011;41626;53.098;6.168;2022-12-22T11:25:30;14.93;;;6.03;;
55720;SDS011;41626;53.098;6.168;2022-12-22T11:30:58;15.43;;;5.75;;
55720;SDS011;41626;53.098;6.168;2022-12-22T11:41:56;10.70;;;4.97;;
55720;SDS011;41626;53.098;6.168;2022-12-22T11:52:55;14.03;;;4.60;;
55720;SDS011;41626;53.098;6.168;2022-12-22T11:58:12;14.93;;;5.47;;
55720;SDS011;41626;53.098;6.168;2022-12-22T12:00:51;14.32;;;4.80;;
55720;SDS011;41626;53.098;6.168;2022-12-22T12:14:25;13.77;;;4.70;;
55720;SDS011;41626;53.098;6.168;2022-12-22T12:20:25;10.50;;;4.80;;
55720;SDS011;41626;53.098;6.168;2022-12-22T12:23:05;13.80;;;5.10;;
55720;SDS011;41626;53.098;6.168;2022-12-22T12:28:11;14.02;;;4.50;;
55720;SDS011;41626;53.098;6.168;2022-12-22T12:30:49;10.77;;;4.75;;
55720;SDS011;41626;53.098;6.168;2022-12-22T12:33:26;11.75;;;4.40;;
55720;SDS011;41626;53.098;6.168;2022-12-22T12:43:45;12.45;;;5.03;;
55720;SDS011;41626;53.098;6.168;2022-12-22T12:52:05;13.13;;;4.53;;
55720;SDS011;41626;53.098;6.168;2022-12-22T12:54:38;13.15;;;4.65;;
55720;SDS011;41626;53.098;6.168;2022-12-22T12:59:54;13.88;;;5.32;;
55720;SDS011;41626;53.098;6.168;2022-12-22T13:10:47;12.48;;;4.40;;
55720;SDS011;41626;53.098;6.168;2022-12-22T13:21:11;14.00;;;4.95;;
55720;SDS011;41626;53.098;6.168;2022-12-22T13:26:50;14.23;;;4.40;;
55720;SDS011;41626;53.098;6.168;2022-12-22T13:34:40;11.30;;;4.22;;
55720;SDS011;41626;53.098;6.168;2022-12-22T13:37:27;14.48;;;4.43;;
55720;SDS011;41626;53.098;6.168;2022-12-22T13:40:04;15.07;;;4.03;;
55720;SDS011;41626;53.098;6.168;2022-12-22T13:42:52;14.00;;;4.47;;
55720;SDS011;41626;53.098;6.168;2022-12-22T13:45:41;9.90;;;3.58;;
55720;SDS011;41626;53.098;6.168;2022-12-22T13:48:17;13.43;;;3.90;;
55720;SDS011;41626;53.098;6.168;2022-12-22T13:53:19;10.50;;;4.70;;
55720;SDS011;41626;53.098;6.168;2022-12-22T13:55:56;14.05;;;4.35;;
55720;SDS011;41626;53.098;6.168;2022-12-22T13:58:26;10.67;;;3.20;;
55720;SDS011;41626;53.098;6.168;2022-12-22T14:03:43;13.77;;;4.15;;
55720;SDS011;41626;53.098;6.168;2022-12-22T14:06:33;14.82;;;4.13;;
55720;SDS011;41626;53.098;6.168;2022-12-22T14:09:10;14.68;;;4.05;;
55720;SDS011;41626;53.098;6.168;2022-12-22T14:11:42;11.68;;;4.15;;
55720;SDS011;41626;53.098;6.168;2022-12-22T14:16:43;11.52;;;3.40;;
55720;SDS011;41626;53.098;6.168;2022-12-22T14:19:14;13.07;;;3.10;;
55720;SDS011;41626;53.098;6.168;2022-12-22T14:21:41;12.82;;;3.13;;
55720;SDS011;41626;53.098;6.168;2022-12-22T14:24:10;12.48;;;3.38;;
55720;SDS011;41626;53.098;6.168;2022-12-22T14:26:40;9.65;;;2.78;;
55720;SDS011;41626;53.098;6.168;2022-12-22T14:29:07;9.18;;;2.50;;
55720;SDS011;41626;53.098;6.168;2022-12-22T14:31:51;12.63;;;3.17;;
55720;SDS011;41626;53.098;6.168;2022-12-22T14:34:27;7.57;;;2.33;;
55720;SDS011;41626;53.098;6.168;2022-12-22T14:36:54;11.75;;;3.38;;
55720;SDS011;41626;53.098;6.168;2022-12-22T14:39:21;12.15;;;2.92;;
55720;SDS011;41626;53.098;6.168;2022-12-22T14:41:53;8.52;;;2.50;;
55720;SDS011;41626;53.098;6.168;2022-12-22T14:47:01;14.17;;;3.70;;
55720;SDS011;41626;53.098;6.168;2022-12-22T14:50:03;9.30;;;2.50;;
55720;SDS011;41626;53.098;6.168;2022-12-22T14:57:49;12.43;;;2.72;;
55720;SDS011;41626;53.098;6.168;2022-12-22T15:02:48;12.63;;;3.33;;
55720;SDS011;41626;53.098;6.168;2022-12-22T15:07:51;10.85;;;3.10;;
55720;SDS011;41626;53.098;6.168;2022-12-22T15:10:18;13.57;;;3.83;;
55720;SDS011;41626;53.098;6.168;2022-12-22T15:12:44;9.93;;;3.55;;
55720;SDS011;41626;53.098;6.168;2022-12-22T15:15:15;10.18;;;3.85;;
55720;SDS011;41626;53.098;6.168;2022-12-22T15:17:43;11.98;;;3.10;;
55720;SDS011;41626;53.098;6.168;2022-12-22T15:20:15;12.30;;;4.13;;
55720;SDS011;41626;53.098;6.168;2022-12-22T15:22:43;14.90;;;5.20;;
55720;SDS011;41626;53.098;6.168;2022-12-22T15:25:13;15.20;;;6.43;;
55720;SDS011;41626;53.098;6.168;2022-12-22T15:27:40;16.90;;;9.27;;
55720;SDS011;41626;53.098;6.168;2022-12-22T15:30:06;15.20;;;6.50;;
55720;SDS011;41626;53.098;6.168;2022-12-22T15:32:33;15.90;;;5.82;;
55720;SDS011;41626;53.098;6.168;2022-12-22T15:34:59;13.43;;;5.90;;
55720;SDS011;41626;53.098;6.168;2022-12-22T15:37:27;14.00;;;6.00;;
55720;SDS011;41626;53.098;6.168;2022-12-22T15:39:53;12.63;;;6.38;;
55720;SDS011;41626;53.098;6.168;2022-12-22T15:42:19;14.02;;;6.78;;
55720;SDS011;41626;53.098;6.168;2022-12-22T15:44:45;12.30;;;5.47;;
55720;SDS011;41626;53.098;6.168;2022-12-22T15:47:10;10.40;;;5.93;;
55720;SDS011;41626;53.098;6.168;2022-12-22T15:49:37;17.15;;;6.43;;
55720;SDS011;41626;53.098;6.168;2022-12-22T15:52:03;15.75;;;7.13;;
55720;SDS011;41626;53.098;6.168;2022-12-22T15:54:30;12.35;;;6.03;;
55720;SDS011;41626;53.098;6.168;2022-12-22T15:56:59;13.83;;;5.50;;
55720;SDS011;41626;53.098;6.168;2022-12-22T15:59:26;14.73;;;6.95;;
55720;SDS011;41626;53.098;6.168;2022-12-22T16:01:53;8.48;;;5.07;;
55720;SDS011;41626;53.098;6.168;2022-12-22T16:04:21;10.23;;;5.38;;
55720;SDS011;41626;53.098;6.168;2022-12-22T16:06:47;14.80;;;6.82;;
55720;SDS011;41626;53.098;6.168;2022-12-22T16:09:21;10.45;;;5.28;;
55720;SDS011;41626;53.098;6.168;2022-12-22T16:11:49;8.53;;;5.07;;
55720;SDS011;41626;53.098;6.168;2022-12-22T16:14:15;8.77;;;5.23;;
55720;SDS011;41626;53.098;6.168;2022-12-22T16:16:42;17.92;;;10.55;;
55720;SDS011;41626;53.098;6.168;2022-12-22T16:19:12;13.05;;;7.53;;
55720;SDS011;41626;53.098;6.168;2022-12-22T16:21:42;14.85;;;8.07;;
55720;SDS011;41626;53.098;6.168;2022-12-22T16:24:26;16.20;;;7.75;;
55720;SDS011;41626;53.098;6.168;2022-12-22T16:26:56;14.10;;;8.77;;
55720;SDS011;41626;53.098;6.168;2022-12-22T16:29:22;13.98;;;10.65;;
55720;SDS011;41626;53.098;6.168;2022-12-22T16:31:49;14.88;;;10.63;;
55720;SDS011;41626;53.098;6.168;2022-12-22T16:34:15;17.45;;;12.13;;
55720;SDS011;41626;53.098;6.168;2022-12-22T16:36:40;17.88;;;13.40;;
55720;SDS011;41626;53.098;6.168;2022-12-22T16:39:06;22.08;;;17.60;;
55720;SDS011;41626;53.098;6.168;2022-12-22T16:41:32;18.38;;;16.30;;
55720;SDS011;41626;53.098;6.168;2022-12-22T16:43:57;19.33;;;17.20;;
55720;SDS011;41626;53.098;6.168;2022-12-22T16:46:25;20.73;;;16.40;;
55720;SDS011;41626;53.098;6.168;2022-12-22T16:48:52;21.77;;;17.42;;
55720;SDS011;41626;53.098;6.168;2022-12-22T16:51:21;23.17;;;17.90;;
55720;SDS011;41626;53.098;6.168;2022-12-22T16:53:49;26.63;;;18.95;;
55720;SDS011;41626;53.098;6.168;2022-12-22T16:56:19;24.77;;;19.97;;
55720;SDS011;41626;53.098;6.168;2022-12-22T16:58:47;30.90;;;22.60;;
55720;SDS011;41626;53.098;6.168;2022-12-22T17:01:35;24.50;;;21.70;;
55720;SDS011;41626;53.098;6.168;2022-12-22T17:04:09;26.03;;;22.37;;
55720;SDS011;41626;53.098;6.168;2022-12-22T17:06:54;29.50;;;23.15;;
55720;SDS011;41626;53.098;6.168;2022-12-22T17:09:26;29.10;;;24.67;;
55720;SDS011;41626;53.098;6.168;2022-12-22T17:12:02;30.63;;;24.33;;
55720;SDS011;41626;53.098;6.168;2022-12-22T17:14:33;29.20;;;24.67;;
55720;SDS011;41626;53.098;6.168;2022-12-22T17:17:01;29.30;;;25.17;;
55720;SDS011;41626;53.098;6.168;2022-12-22T17:19:27;31.08;;;25.95;;
55720;SDS011;41626;53.098;6.168;2022-12-22T17:21:53;32.20;;;24.98;;
55720;SDS011;41626;53.098;6.168;2022-12-22T17:24:21;31.43;;;26.33;;